sensor_id;sensor_type;location;lat;lon;timestamp;pressure;altitude;pressure_sealevel;temperature;humidity
12349;BME280;5974;42.710;27.258;2023-02-28T00:01:20;101042.47;;;9.12;100.00
12349;BME280;5974;42.710;27.258;2023-02-28T00:03:47;101041.56;;;9.14;100.00
12349;BME280;5974;42.710;27.258;2023-02-28T00:06:15;101049.75;;;8.96;100.00
12349;BME280;5974;42.710;27.258;2023-02-28T00:08:42;101040.47;;;8.80;100.00
12349;BME280;5974;42.710;27.258;2023-02-28T00:11:12;101045.16;;;8.61;100.00
12349;BME280;5974;42.710;27.258;2023-02-28T00:13:41;101047.16;;;8.49;100.00
12349;BME280;5974;42.710;27.258;2023-02-28T00:16:13;101035.22;;;8.34;100.00
12349;BME280;5974;42.710;27.258;2023-02-28T00:18:40;101061.31;;;8.33;100.00
12349;BME280;5974;42.710;27.258;2023-02-28T00:21:07;101073.25;;;8.46;100.00
12349;BME280;5974;42.710;27.258;2023-02-28T00:23:36;101077.16;;;8.71;100.00
12349;BME280;5974;42.710;27.258;2023-02-28T00:26:04;101059.81;;;8.68;100.00
12349;BME280;5974;42.710;27.258;2023-02-28T00:28:30;101077.84;;;8.81;100.00
12349;BME280;5974;42.710;27.258;2023-02-28T00:30:57;101075.22;;;8.82;100.00
12349;BME280;5974;42.710;27.258;2023-02-28T00:33:25;101060.06;;;8.55;100.00
12349;BME280;5974;42.710;27.258;2023-02-28T00:35:52;101090.25;;;8.68;100.00
12349;BME280;5974;42.710;27.258;2023-02-28T00:38:27;101107.44;;;8.78;100.00
12349;BME280;5974;42.710;27.258;2023-02-28T00:40:55;101103.38;;;8.62;100.00
12349;BME280;5974;42.710;27.258;2023-02-28T00:43:22;101099.56;;;8.81;100.00
12349;BME280;5974;42.710;27.258;2023-02-28T00:45:49;101090.88;;;8.82;100.00
12349;BME280;5974;42.710;27.258;2023-02-28T00:48:18;101083.31;;;8.67;100.00
12349;BME280;5974;42.710;27.258;2023-02-28T00:50:48;101075.78;;;8.52;100.00
12349;BME280;5974;42.710;27.258;2023-02-28T00:53:15;101084.56;;;8.45;100.00
12349;BME280;5974;42.710;27.258;2023-02-28T00:55:41;101085.22;;;8.56;100.00
12349;BME280;5974;42.710;27.258;2023-02-28T00:58:10;101073.47;;;8.32;100.00
12349;BME280;5974;42.710;27.258;2023-02-28T01:00:36;101068.44;;;8.18;100.00
12349;BME280;5974;42.710;27.258;2023-02-28T01:03:03;101078.16;;;8.09;100.00
12349;BME280;5974;42.710;27.258;2023-02-28T01:05:30;101100.44;;;8.30;100.00
12349;BME280;5974;42.710;27.258;2023-02-28T01:07:57;101092.06;;;8.08;100.00
12349;BME280;5974;42.710;27.258;2023-02-28T01:10:25;101099.91;;;8.05;100.00
12349;BME280;5974;42.710;27.258;2023-02-28T01:12:51;101085.25;;;7.99;100.00
12349;BME280;5974;42.710;27.258;2023-02-28T01:15:20;101098.19;;;8.04;100.00
12349;BME280;5974;42.710;27.258;2023-02-28T01:17:46;101084.34;;;8.00;100.00
12349;BME280;5974;42.710;27.258;2023-02-28T01:20:13;101100.72;;;8.08;100.00
12349;BME280;5974;42.710;27.258;2023-02-28T01:22:41;101107.69;;;8.06;100.00
12349;BME280;5974;42.710;27.258;2023-02-28T01:25:08;101110.19;;;8.14;100.00
12349;BME280;5974;42.710;27.258;2023-02-28T01:27:35;101112.72;;;8.20;100.00
12349;BME280;5974;42.710;27.258;2023-02-28T01:30:02;101121.19;;;8.34;100.00
12349;BME280;5974;42.710;27.258;2023-02-28T01:32:31;101112.63;;;8.28;100.00
12349;BME280;5974;42.710;27.258;2023-02-28T01:34:57;101110.06;;;8.22;100.00
12349;BME280;5974;42.710;27.258;2023-02-28T01:37:24;101120.31;;;8.35;100.00
12349;BME280;5974;42.710;27.258;2023-02-28T01:39:51;101122.97;;;8.31;100.00
12349;BME280;5974;42.710;27.258;2023-02-28T01:42:18;101115.22;;;8.26;100.00
12349;BME280;5974;42.710;27.258;2023-02-28T01:44:59;101110.88;;;8.28;100.00
12349;BME280;5974;42.710;27.258;2023-02-28T01:47:29;101118.88;;;8.13;100.00
12349;BME280;5974;42.710;27.258;2023-02-28T01:50:01;101126.78;;;8.07;100.00
12349;BME280;5974;42.710;27.258;2023-02-28T01:52:29;101130.13;;;8.16;100.00
12349;BME280;5974;42.710;27.258;2023-02-28T01:54:59;101113.81;;;8.05;100.00
12349;BME280;5974;42.710;27.258;2023-02-28T01:57:29;101094.09;;;7.86;100.00
12349;BME280;5974;42.710;27.258;2023-02-28T02:00:06;101111.28;;;7.99;100.00
12349;BME280;5974;42.710;27.258;2023-02-28T02:02:36;101105.34;;;7.88;100.00
12349;BME280;5974;42.710;27.258;2023-02-28T02:05:07;101116.63;;;7.89;100.00
12349;BME280;5974;42.710;27.258;2023-02-28T02:07:36;101124.50;;;7.84;100.00
12349;BME280;5974;42.710;27.258;2023-02-28T02:10:06;101119.34;;;7.80;100.00
12349;BME280;5974;42.710;27.258;2023-02-28T02:12:51;101128.94;;;7.76;100.00
12349;BME280;5974;42.710;27.258;2023-02-28T02:15:26;101127.06;;;7.87;100.00
12349;BME280;5974;42.710;27.258;2023-02-28T02:17:58;101117.63;;;7.79;100.00
12349;BME280;5974;42.710;27.258;2023-02-28T02:24:01;101122.75;;;7.86;100.00
12349;BME280;5974;42.710;27.258;2023-02-28T02:26:49;101122.81;;;7.79;100.00
12349;BME280;5974;42.710;27.258;2023-02-28T02:32:28;101103.84;;;7.71;100.00
12349;BME280;5974;42.710;27.258;2023-02-28T02:35:11;101127.25;;;7.72;100.00
12349;BME280;5974;42.710;27.258;2023-02-28T02:37:43;101128.97;;;7.73;100.00
12349;BME280;5974;42.710;27.258;2023-02-28T02:40:16;101127.94;;;7.85;100.00
12349;BME280;5974;42.710;27.258;2023-02-28T02:42:50;101135.09;;;7.69;100.00
12349;BME280;5974;42.710;27.258;2023-02-28T02:45:24;101133.28;;;7.77;100.00
12349;BME280;5974;42.710;27.258;2023-02-28T02:47:53;101148.72;;;7.89;100.00
12349;BME280;5974;42.710;27.258;2023-02-28T02:50:26;101140.06;;;7.90;100.00
12349;BME280;5974;42.710;27.258;2023-02-28T02:52:57;101140.06;;;7.90;100.00
12349;BME280;5974;42.710;27.258;2023-02-28T02:55:27;101131.13;;;8.06;100.00
12349;BME280;5974;42.710;27.258;2023-02-28T02:57:57;101140.06;;;7.89;100.00
12349;BME280;5974;42.710;27.258;2023-02-28T03:00:32;101135.84;;;7.79;100.00
12349;BME280;5974;42.710;27.258;2023-02-28T03:03:01;101145.44;;;7.77;100.00
12349;BME280;5974;42.710;27.258;2023-02-28T03:05:34;101145.25;;;7.90;100.00
12349;BME280;5974;42.710;27.258;2023-02-28T03:08:03;101144.56;;;7.76;100.00
12349;BME280;5974;42.710;27.258;2023-02-28T03:10:37;101153.16;;;7.84;100.00
12349;BME280;5974;42.710;27.258;2023-02-28T03:13:12;101151.25;;;7.94;100.00
12349;BME280;5974;42.710;27.258;2023-02-28T03:15:52;101158.78;;;8.18;100.00
12349;BME280;5974;42.710;27.258;2023-02-28T03:18:29;101157.06;;;8.14;100.00
12349;BME280;5974;42.710;27.258;2023-02-28T03:21:06;101154.34;;;8.22;100.00
12349;BME280;5974;42.710;27.258;2023-02-28T03:23:40;101151.22;;;7.97;100.00
12349;BME280;5974;42.710;27.258;2023-02-28T03:26:13;101152.78;;;8.10;100.00
12349;BME280;5974;42.710;27.258;2023-02-28T03:28:49;101144.31;;;7.94;100.00
12349;BME280;5974;42.710;27.258;2023-02-28T03:31:21;101141.75;;;7.93;100.00
12349;BME280;5974;42.710;27.258;2023-02-28T03:33:55;101147.66;;;8.05;100.00
12349;BME280;5974;42.710;27.258;2023-02-28T03:36:28;101147.63;;;8.08;100.00
12349;BME280;5974;42.710;27.258;2023-02-28T03:38:58;101149.56;;;7.91;100.00
12349;BME280;5974;42.710;27.258;2023-02-28T03:41:31;101159.00;;;8.00;100.00
12349;BME280;5974;42.710;27.258;2023-02-28T03:44:03;101151.88;;;8.14;100.00
12349;BME280;5974;42.710;27.258;2023-02-28T03:46:36;101169.16;;;8.21;100.00
12349;BME280;5974;42.710;27.258;2023-02-28T03:49:09;101160.50;;;8.17;100.00
12349;BME280;5974;42.710;27.258;2023-02-28T03:51:41;101168.19;;;8.25;100.00
12349;BME280;5974;42.710;27.258;2023-02-28T03:54:13;101171.56;;;8.36;100.00
12349;BME280;5974;42.710;27.258;2023-02-28T03:56:46;101148.22;;;8.29;100.00
12349;BME280;5974;42.710;27.258;2023-02-28T03:59:18;101153.44;;;8.26;100.00
12349;BME280;5974;42.710;27.258;2023-02-28T04:01:48;101152.94;;;8.59;100.00
12349;BME280;5974;42.710;27.258;2023-02-28T04:04:16;101151.25;;;8.58;100.00
12349;BME280;5974;42.710;27.258;2023-02-28T04:06:45;101148.59;;;8.61;100.00
12349;BME280;5974;42.710;27.258;2023-02-28T04:09:13;101152.03;;;8.63;100.00
12349;BME280;5974;42.710;27.258;2023-02-28T04:11:42;101137.50;;;8.48;100.00
12349;BME280;5974;42.710;27.258;2023-02-28T04:14:11;101156.38;;;8.64;100.00
12349;BME280;5974;42.710;27.258;2023-02-28T04:16:40;101157.56;;;8.42;100.00
12349;BME280;5974;42.710;27.258;2023-02-28T04:19:08;101159.06;;;8.58;100.00
12349;BME280;5974;42.710;27.258;2023-02-28T04:21:36;101160.09;;;8.48;100.00
12349;BME280;5974;42.710;27.258;2023-02-28T04:24:07;101133.00;;;7.97;100.00
12349;BME280;5974;42.710;27.258;2023-02-28T04:26:40;101173.91;;;8.53;100.00
12349;BME280;5974;42.710;27.258;2023-02-28T04:29:10;101171.63;;;8.32;100.00
12349;BME280;5974;42.710;27.258;2023-02-28T04:31:37;101163.78;;;8.33;100.00
12349;BME280;5974;42.710;27.258;2023-02-28T04:34:04;101162.06;;;8.31;100.00
12349;BME280;5974;42.710;27.258;2023-02-28T04:36:31;101165.16;;;8.57;100.00
12349;BME280;5974;42.710;27.258;2023-02-28T04:38:58;101172.53;;;8.28;100.00
12349;BME280;5974;42.710;27.258;2023-02-28T04:41:26;101169.06;;;8.26;100.00
12349;BME280;5974;42.710;27.258;2023-02-28T04:43:53;101164.84;;;8.17;100.00
12349;BME280;5974;42.710;27.258;2023-02-28T04:46:22;101156.75;;;8.37;100.00
12349;BME280;5974;42.710;27.258;2023-02-28T04:48:49;101169.25;;;8.13;100.00
12349;BME280;5974;42.710;27.258;2023-02-28T04:51:17;101160.03;;;7.90;100.00
12349;BME280;5974;42.710;27.258;2023-02-28T04:53:45;101166.13;;;7.87;100.00
12349;BME280;5974;42.710;27.258;2023-02-28T04:56:13;101171.44;;;7.77;100.00
12349;BME280;5974;42.710;27.258;2023-02-28T04:58:42;101171.13;;;8.01;100.00
12349;BME280;5974;42.710;27.258;2023-02-28T05:01:18;101170.59;;;7.76;100.00
12349;BME280;5974;42.710;27.258;2023-02-28T05:03:45;101173.19;;;7.78;100.00
12349;BME280;5974;42.710;27.258;2023-02-28T05:06:13;101167.84;;;7.88;100.00
12349;BME280;5974;42.710;27.258;2023-02-28T05:08:40;101173.81;;;7.95;100.00
12349;BME280;5974;42.710;27.258;2023-02-28T05:11:13;101182.25;;;8.13;100.00
12349;BME280;5974;42.710;27.258;2023-02-28T05:13:42;101181.75;;;7.86;100.00
12349;BME280;5974;42.710;27.258;2023-02-28T05:16:09;101182.72;;;7.77;100.00
12349;BME280;5974;42.710;27.258;2023-02-28T05:18:36;101182.78;;;7.73;100.00
12349;BME280;5974;42.710;27.258;2023-02-28T05:21:03;101178.28;;;7.85;100.00
12349;BME280;5974;42.710;27.258;2023-02-28T05:23:29;101194.72;;;7.89;100.00
12349;BME280;5974;42.710;27.258;2023-02-28T05:25:57;101202.38;;;8.02;100.00
12349;BME280;5974;42.710;27.258;2023-02-28T05:28:24;101202.31;;;8.08;100.00
12349;BME280;5974;42.710;27.258;2023-02-28T05:30:52;101217.03;;;8.09;100.00
12349;BME280;5974;42.710;27.258;2023-02-28T05:33:18;101197.84;;;8.18;100.00
12349;BME280;5974;42.710;27.258;2023-02-28T05:35:45;101213.06;;;8.48;100.00
12349;BME280;5974;42.710;27.258;2023-02-28T05:38:12;101224.16;;;8.62;100.00
12349;BME280;5974;42.710;27.258;2023-02-28T05:40:39;101214.50;;;8.69;100.00
12349;BME280;5974;42.710;27.258;2023-02-28T05:43:10;101200.59;;;8.70;100.00
12349;BME280;5974;42.710;27.258;2023-02-28T05:45:37;101207.25;;;8.30;100.00
12349;BME280;5974;42.710;27.258;2023-02-28T05:48:06;101210.91;;;8.15;100.00
12349;BME280;5974;42.710;27.258;2023-02-28T05:50:33;101219.97;;;7.82;100.00
12349;BME280;5974;42.710;27.258;2023-02-28T05:52:59;101219.06;;;7.86;100.00
12349;BME280;5974;42.710;27.258;2023-02-28T05:55:26;101237.09;;;8.01;100.00
12349;BME280;5974;42.710;27.258;2023-02-28T05:57:53;101242.28;;;8.04;100.00
12349;BME280;5974;42.710;27.258;2023-02-28T06:00:20;101240.69;;;7.93;100.00
12349;BME280;5974;42.710;27.258;2023-02-28T06:02:47;101239.53;;;8.16;100.00
12349;BME280;5974;42.710;27.258;2023-02-28T06:05:16;101237.13;;;8.00;100.00
12349;BME280;5974;42.710;27.258;2023-02-28T06:07:44;101253.59;;;8.00;100.00
12349;BME280;5974;42.710;27.258;2023-02-28T06:10:11;101246.88;;;7.83;100.00
12349;BME280;5974;42.710;27.258;2023-02-28T06:12:38;101255.63;;;7.77;100.00
12349;BME280;5974;42.710;27.258;2023-02-28T06:15:07;101261.56;;;7.88;100.00
12349;BME280;5974;42.710;27.258;2023-02-28T06:17:36;101257.06;;;8.02;100.00
12349;BME280;5974;42.710;27.258;2023-02-28T06:20:04;101263.72;;;8.28;100.00
12349;BME280;5974;42.710;27.258;2023-02-28T06:22:33;101261.34;;;8.08;100.00
12349;BME280;5974;42.710;27.258;2023-02-28T06:25:01;101250.94;;;8.08;100.00
12349;BME280;5974;42.710;27.258;2023-02-28T06:27:27;101258.66;;;8.12;100.00
12349;BME280;5974;42.710;27.258;2023-02-28T06:29:55;101252.88;;;7.89;100.00
12349;BME280;5974;42.710;27.258;2023-02-28T06:32:22;101269.47;;;7.79;100.00
12349;BME280;5974;42.710;27.258;2023-02-28T06:34:48;101254.59;;;7.92;100.00
12349;BME280;5974;42.710;27.258;2023-02-28T06:37:15;101250.94;;;8.08;100.00
12349;BME280;5974;42.710;27.258;2023-02-28T06:39:44;101253.69;;;7.96;100.00
12349;BME280;5974;42.710;27.258;2023-02-28T06:42:11;101252.81;;;7.94;100.00
12349;BME280;5974;42.710;27.258;2023-02-28T06:44:38;101255.31;;;8.04;100.00
12349;BME280;5974;42.710;27.258;2023-02-28T06:47:06;101248.38;;;8.03;100.00
12349;BME280;5974;42.710;27.258;2023-02-28T06:49:34;101248.63;;;7.82;100.00
12349;BME280;5974;42.710;27.258;2023-02-28T06:52:02;101244.28;;;7.84;100.00
12349;BME280;5974;42.710;27.258;2023-02-28T06:54:29;101244.25;;;7.86;100.00
12349;BME280;5974;42.710;27.258;2023-02-28T06:56:57;101239.75;;;7.98;100.00
12349;BME280;5974;42.710;27.258;2023-02-28T06:59:24;101242.25;;;8.09;100.00
12349;BME280;5974;42.710;27.258;2023-02-28T07:01:51;101226.38;;;8.27;100.00
12349;BME280;5974;42.710;27.258;2023-02-28T07:04:18;101220.34;;;8.24;100.00
12349;BME280;5974;42.710;27.258;2023-02-28T07:06:45;101234.84;;;8.44;100.00
12349;BME280;5974;42.710;27.258;2023-02-28T07:09:12;101224.47;;;8.41;100.00
12349;BME280;5974;42.710;27.258;2023-02-28T07:11:39;101239.22;;;8.41;100.00
12349;BME280;5974;42.710;27.258;2023-02-28T07:14:07;101235.75;;;8.40;100.00
12349;BME280;5974;42.710;27.258;2023-02-28T07:16:35;101238.41;;;8.39;100.00
12349;BME280;5974;42.710;27.258;2023-02-28T07:19:02;101233.88;;;8.50;100.00
12349;BME280;5974;42.710;27.258;2023-02-28T07:21:28;101231.97;;;8.64;100.00
12349;BME280;5974;42.710;27.258;2023-02-28T07:23:55;101229.84;;;8.87;100.00
12349;BME280;5974;42.710;27.258;2023-02-28T07:26:23;101238.19;;;9.10;100.00
12349;BME280;5974;42.710;27.258;2023-02-28T07:28:50;101233.75;;;9.14;100.00
12349;BME280;5974;42.710;27.258;2023-02-28T07:31:18;101235.63;;;9.06;100.00
12349;BME280;5974;42.710;27.258;2023-02-28T07:33:45;101242.03;;;8.88;100.00
12349;BME280;5974;42.710;27.258;2023-02-28T07:36:14;101237.03;;;8.73;100.00
12349;BME280;5974;42.710;27.258;2023-02-28T07:38:45;101223.63;;;8.97;100.00
12349;BME280;5974;42.710;27.258;2023-02-28T07:41:13;101232.44;;;8.89;100.00
12349;BME280;5974;42.710;27.258;2023-02-28T07:43:40;101205.22;;;8.51;100.00
12349;BME280;5974;42.710;27.258;2023-02-28T07:46:09;101236.13;;;8.74;100.00
12349;BME280;5974;42.710;27.258;2023-02-28T07:48:37;101240.91;;;9.03;100.00
12349;BME280;5974;42.710;27.258;2023-02-28T07:51:04;101247.31;;;8.82;100.00
12349;BME280;5974;42.710;27.258;2023-02-28T07:53:32;101240.47;;;8.77;100.00
12349;BME280;5974;42.710;27.258;2023-02-28T07:56:00;101242.78;;;8.93;100.00
12349;BME280;5974;42.710;27.258;2023-02-28T07:58:28;101246.78;;;9.15;100.00
12349;BME280;5974;42.710;27.258;2023-02-28T08:00:55;101252.94;;;9.11;100.00
12349;BME280;5974;42.710;27.258;2023-02-28T08:03:23;101249.19;;;9.26;100.00
12349;BME280;5974;42.710;27.258;2023-02-28T08:05:53;101244.38;;;9.02;100.00
12349;BME280;5974;42.710;27.258;2023-02-28T08:08:20;101247.19;;;8.90;100.00
12349;BME280;5974;42.710;27.258;2023-02-28T08:10:47;101246.28;;;8.92;100.00
12349;BME280;5974;42.710;27.258;2023-02-28T08:13:13;101251.53;;;8.91;100.00
12349;BME280;5974;42.710;27.258;2023-02-28T08:15:41;101261.97;;;8.91;100.00
12349;BME280;5974;42.710;27.258;2023-02-28T08:18:09;101256.59;;;9.00;100.00
12349;BME280;5974;42.710;27.258;2023-02-28T08:20:36;101260.81;;;9.08;100.00
12349;BME280;5974;42.710;27.258;2023-02-28T08:23:04;101254.78;;;9.06;100.00
12349;BME280;5974;42.710;27.258;2023-02-28T08:25:31;101252.94;;;9.11;100.00
12349;BME280;5974;42.710;27.258;2023-02-28T08:27:58;101247.41;;;9.30;100.00
12349;BME280;5974;42.710;27.258;2023-02-28T08:30:24;101240.97;;;9.49;100.00
12349;BME280;5974;42.710;27.258;2023-02-28T08:32:51;101242.13;;;9.80;100.00
12349;BME280;5974;42.710;27.258;2023-02-28T08:35:18;101220.69;;;9.64;100.00
12349;BME280;5974;42.710;27.258;2023-02-28T08:37:47;101245.13;;;10.05;100.00
12349;BME280;5974;42.710;27.258;2023-02-28T08:40:15;101245.69;;;9.76;100.00
12349;BME280;5974;42.710;27.258;2023-02-28T08:42:43;101253.69;;;9.68;100.00
12349;BME280;5974;42.710;27.258;2023-02-28T08:45:10;101253.75;;;9.64;100.00
12349;BME280;5974;42.710;27.258;2023-02-28T08:48:02;101251.91;;;9.70;100.00
12349;BME280;5974;42.710;27.258;2023-02-28T08:50:28;101256.81;;;9.87;100.00
12349;BME280;5974;42.710;27.258;2023-02-28T08:52:55;101255.44;;;9.68;100.00
12349;BME280;5974;42.710;27.258;2023-02-28T08:55:23;101253.56;;;9.74;100.00
12349;BME280;5974;42.710;27.258;2023-02-28T08:57:50;101252.75;;;9.71;100.00
12349;BME280;5974;42.710;27.258;2023-02-28T09:00:18;101240.22;;;9.88;100.00
12349;BME280;5974;42.710;27.258;2023-02-28T09:02:45;101255.25;;;9.77;100.00
12349;BME280;5974;42.710;27.258;2023-02-28T09:05:12;101246.66;;;9.70;100.00
12349;BME280;5974;42.710;27.258;2023-02-28T09:07:39;101259.03;;;9.61;100.00
12349;BME280;5974;42.710;27.258;2023-02-28T09:10:06;101238.88;;;9.69;100.00
12349;BME280;5974;42.710;27.258;2023-02-28T09:12:35;101249.22;;;9.75;100.00
12349;BME280;5974;42.710;27.258;2023-02-28T09:15:03;101243.13;;;9.73;100.00
12349;BME280;5974;42.710;27.258;2023-02-28T09:17:30;101255.19;;;9.80;100.00
12349;BME280;5974;42.710;27.258;2023-02-28T09:19:57;101268.53;;;9.65;100.00
12349;BME280;5974;42.710;27.258;2023-02-28T09:22:24;101259.47;;;9.84;100.00
12349;BME280;5974;42.710;27.258;2023-02-28T09:24:51;101258.38;;;9.94;100.00
12349;BME280;5974;42.710;27.258;2023-02-28T09:27:18;101252.69;;;10.18;100.00
12349;BME280;5974;42.710;27.258;2023-02-28T09:29:46;101250.28;;;10.49;100.00
12349;BME280;5974;42.710;27.258;2023-02-28T09:32:13;101252.34;;;10.37;100.00
12349;BME280;5974;42.710;27.258;2023-02-28T09:34:40;101248.91;;;9.90;100.00
12349;BME280;5974;42.710;27.258;2023-02-28T09:37:07;101250.25;;;10.09;100.00
12349;BME280;5974;42.710;27.258;2023-02-28T09:39:33;101250.47;;;10.80;100.00
12349;BME280;5974;42.710;27.258;2023-02-28T09:42:02;101242.97;;;11.35;100.00
12349;BME280;5974;42.710;27.258;2023-02-28T09:44:33;101246.00;;;11.54;100.00
12349;BME280;5974;42.710;27.258;2023-02-28T09:47:10;101252.31;;;11.12;100.00
12349;BME280;5974;42.710;27.258;2023-02-28T09:49:41;101249.25;;;10.58;100.00
12349;BME280;5974;42.710;27.258;2023-02-28T09:52:12;101256.53;;;10.44;100.00
12349;BME280;5974;42.710;27.258;2023-02-28T09:54:40;101267.31;;;10.28;100.00
12349;BME280;5974;42.710;27.258;2023-02-28T09:57:13;101264.16;;;10.11;100.00
12349;BME280;5974;42.710;27.258;2023-02-28T09:59:49;101259.53;;;9.81;100.00
12349;BME280;5974;42.710;27.258;2023-02-28T10:02:48;101253.69;;;9.68;100.00
12349;BME280;5974;42.710;27.258;2023-02-28T10:05:20;101249.75;;;9.91;100.00
12349;BME280;5974;42.710;27.258;2023-02-28T10:07:58;101258.13;;;10.06;100.00
12349;BME280;5974;42.710;27.258;2023-02-28T10:10:30;101244.56;;;9.89;100.00
12349;BME280;5974;42.710;27.258;2023-02-28T10:13:02;101248.66;;;9.58;100.00
12349;BME280;5974;42.710;27.258;2023-02-28T10:15:32;101269.09;;;9.35;100.00
12349;BME280;5974;42.710;27.258;2023-02-28T10:18:04;101263.47;;;9.05;100.00
12349;BME280;5974;42.710;27.258;2023-02-28T10:20:33;101266.25;;;8.95;100.00
12349;BME280;5974;42.710;27.258;2023-02-28T10:23:07;101259.78;;;8.62;100.00
12349;BME280;5974;42.710;27.258;2023-02-28T10:25:37;101260.31;;;8.85;100.00
12349;BME280;5974;42.710;27.258;2023-02-28T10:28:12;101263.13;;;8.71;100.00
12349;BME280;5974;42.710;27.258;2023-02-28T10:30:46;101251.88;;;8.69;100.00
12349;BME280;5974;42.710;27.258;2023-02-28T10:33:19;101247.28;;;8.85;100.00
12349;BME280;5974;42.710;27.258;2023-02-28T10:35:48;101257.16;;;8.62;100.00
12349;BME280;5974;42.710;27.258;2023-02-28T10:38:18;101242.63;;;8.49;100.00
12349;BME280;5974;42.710;27.258;2023-02-28T10:40:45;101241.84;;;8.41;100.00
12349;BME280;5974;42.710;27.258;2023-02-28T10:43:20;101247.97;;;8.38;100.00
12349;BME280;5974;42.710;27.258;2023-02-28T10:45:59;101243.66;;;8.34;100.00
12349;BME280;5974;42.710;27.258;2023-02-28T10:48:33;101237.63;;;8.32;100.00
12349;BME280;5974;42.710;27.258;2023-02-28T10:51:01;101237.72;;;8.23;100.00
12349;BME280;5974;42.710;27.258;2023-02-28T10:53:32;101217.81;;;8.16;100.00
12349;BME280;5974;42.710;27.258;2023-02-28T10:56:01;101219.34;;;8.34;100.00
12349;BME280;5974;42.710;27.258;2023-02-28T10:58:30;101217.81;;;8.17;100.00
12349;BME280;5974;42.710;27.258;2023-02-28T11:00:58;101223.75;;;8.29;100.00
12349;BME280;5974;42.710;27.258;2023-02-28T11:03:32;101225.38;;;8.39;100.00
12349;BME280;5974;42.710;27.258;2023-02-28T11:06:05;101220.19;;;8.36;100.00
12349;BME280;5974;42.710;27.258;2023-02-28T11:08:33;101213.94;;;8.47;100.00
12349;BME280;5974;42.710;27.258;2023-02-28T11:11:04;101201.75;;;8.49;100.00
12349;BME280;5974;42.710;27.258;2023-02-28T11:13:33;101210.38;;;8.54;100.00
12349;BME280;5974;42.710;27.258;2023-02-28T11:16:04;101212.13;;;8.52;100.00
12349;BME280;5974;42.710;27.258;2023-02-28T11:18:40;101221.06;;;8.36;100.00
12349;BME280;5974;42.710;27.258;2023-02-28T11:21:09;101217.16;;;8.64;100.00
12349;BME280;5974;42.710;27.258;2023-02-28T11:23:40;101208.00;;;8.94;100.00
12349;BME280;5974;42.710;27.258;2023-02-28T11:26:08;101204.38;;;9.03;100.00
12349;BME280;5974;42.710;27.258;2023-02-28T11:28:38;101201.41;;;9.25;100.00
12349;BME280;5974;42.710;27.258;2023-02-28T11:31:16;101187.59;;;9.17;100.00
12349;BME280;5974;42.710;27.258;2023-02-28T11:33:47;101177.28;;;9.13;100.00
12349;BME280;5974;42.710;27.258;2023-02-28T11:36:19;101183.31;;;9.15;100.00
12349;BME280;5974;42.710;27.258;2023-02-28T11:38:47;101181.56;;;9.15;100.00
12349;BME280;5974;42.710;27.258;2023-02-28T11:41:34;101182.66;;;9.04;100.00
12349;BME280;5974;42.710;27.258;2023-02-28T11:44:14;101187.38;;;8.81;100.00
12349;BME280;5974;42.710;27.258;2023-02-28T11:46:47;101197.38;;;9.06;100.00
12349;BME280;5974;42.710;27.258;2023-02-28T11:49:28;101198.31;;;8.49;100.00
12349;BME280;5974;42.710;27.258;2023-02-28T11:51:59;101208.78;;;8.99;100.00
12349;BME280;5974;42.710;27.258;2023-02-28T11:54:41;101202.94;;;8.85;100.00
12349;BME280;5974;42.710;27.258;2023-02-28T11:57:23;101195.19;;;8.82;100.00
12349;BME280;5974;42.710;27.258;2023-02-28T12:00:03;101198.41;;;8.98;100.00
12349;BME280;5974;42.710;27.258;2023-02-28T12:02:44;101193.19;;;8.96;100.00
12349;BME280;5974;42.710;27.258;2023-02-28T12:05:24;101195.19;;;8.82;100.00
12349;BME280;5974;42.710;27.258;2023-02-28T12:08:04;101209.91;;;8.83;100.00
12349;BME280;5974;42.710;27.258;2023-02-28T12:10:37;101213.28;;;8.90;100.00
12349;BME280;5974;42.710;27.258;2023-02-28T12:13:16;101211.00;;;8.70;100.00
12349;BME280;5974;42.710;27.258;2023-02-28T12:16:05;101211.75;;;8.78;100.00
12349;BME280;5974;42.710;27.258;2023-02-28T12:18:47;101196.00;;;8.86;100.00
12349;BME280;5974;42.710;27.258;2023-02-28T12:21:26;101187.72;;;9.11;100.00
12349;BME280;5974;42.710;27.258;2023-02-28T12:24:11;101186.63;;;9.24;100.00
12349;BME280;5974;42.710;27.258;2023-02-28T12:26:46;101192.16;;;9.05;100.00
12349;BME280;5974;42.710;27.258;2023-02-28T12:29:17;101201.41;;;8.72;100.00
12349;BME280;5974;42.710;27.258;2023-02-28T12:31:49;101196.78;;;8.91;100.00
12349;BME280;5974;42.710;27.258;2023-02-28T12:34:22;101197.22;;;8.62;100.00
12349;BME280;5974;42.710;27.258;2023-02-28T12:36:55;101200.97;;;8.46;100.00
12349;BME280;5974;42.710;27.258;2023-02-28T12:39:28;101203.28;;;8.64;100.00
12349;BME280;5974;42.710;27.258;2023-02-28T12:42:00;101193.78;;;8.58;100.00
12349;BME280;5974;42.710;27.258;2023-02-28T12:44:32;101195.38;;;8.70;100.00
12349;BME280;5974;42.710;27.258;2023-02-28T12:47:03;101206.72;;;8.64;100.00
12349;BME280;5974;42.710;27.258;2023-02-28T12:49:33;101206.47;;;8.83;100.00
12349;BME280;5974;42.710;27.258;2023-02-28T12:52:04;101193.25;;;8.95;100.00
12349;BME280;5974;42.710;27.258;2023-02-28T12:54:35;101185.72;;;8.77;100.00
12349;BME280;5974;42.710;27.258;2023-02-28T12:57:09;101188.28;;;8.80;100.00
12349;BME280;5974;42.710;27.258;2023-02-28T12:59:42;101190.00;;;8.79;100.00
12349;BME280;5974;42.710;27.258;2023-02-28T13:05:38;101179.84;;;9.14;100.00
12349;BME280;5974;42.710;27.258;2023-02-28T13:08:24;101181.47;;;8.69;100.00
12349;BME280;5974;42.710;27.258;2023-02-28T13:10:56;101192.38;;;8.38;100.00
12349;BME280;5974;42.710;27.258;2023-02-28T13:13:25;101194.47;;;8.71;100.00
12349;BME280;5974;42.710;27.258;2023-02-28T13:16:01;101187.97;;;8.41;100.00